Aviation Digital Data Service (ADDS)

Output produced by METARs form (1502 UTC 23 October 2017)
found at http://www.aviationweather.gov/adds/metars/
 
KBQP 231455Z AUTO 28007KT 10SM CLR 15/09 A3011 RMK AO2 T01530090
KBQP 231435Z AUTO 27007KT 10SM CLR 15/10 A3012 RMK AO2 T01470096
KBQP 231415Z AUTO 28006KT 10SM CLR 13/10 A3012 RMK AO2 T01320097
KBQP 231355Z AUTO 27005KT 10SM CLR 12/10 A3012 RMK AO2 T01210104
KBQP 231335Z AUTO 26005KT 10SM CLR 11/11 A3011 RMK AO2 T01100106
KBQP 231315Z AUTO 26003KT 10SM CLR 10/10 A3010 RMK AO2 T01000097
KBQP 231255Z AUTO 27003KT 10SM CLR 09/08 A3009 RMK AO2 T00870084
KBQP 231235Z AUTO 24003KT 10SM CLR 08/08 A3009 RMK AO2 T00800076
KBQP 231215Z AUTO 00000KT 10SM CLR 08/08 A3009 RMK AO2 T00820079
KBQP 231155Z AUTO 27003KT 10SM CLR 08/08 A3008 RMK AO2 60001 70022 T00830080 10136 20083
KBQP 231135Z AUTO 27004KT 10SM CLR 09/09 A3008 RMK AO2 T00890085
KBQP 231115Z AUTO 28004KT 10SM CLR 09/09 A3008 RMK AO2 T00910088
KBQP 231055Z AUTO 30003KT 10SM CLR 10/09 A3007 RMK AO2 T00960093
KBQP 231035Z AUTO 29004KT 10SM CLR 10/10 A3007 RMK AO2 T00990096
KBQP 231015Z AUTO 28004KT 10SM CLR 10/10 A3007 RMK AO2 T00990095
KBQP 230955Z AUTO 28004KT 10SM CLR 10/10 A3007 RMK AO2 T01020099
KBQP 230935Z AUTO 27003KT 10SM CLR 11/10 A3007 RMK AO2 T01060103
KBQP 230915Z AUTO 30003KT 10SM CLR 11/11 A3007 RMK AO2 T01100107
KBQP 230855Z AUTO 29003KT 10SM CLR 12/11 A3006 RMK AO2 60001 T01160113
KBQP 230835Z AUTO 30005KT 10SM SCT015 12/12 A3006 RMK AO2 T01180115
KBQP 230815Z AUTO 31004KT 10SM SCT015 12/12 A3006 RMK AO2 T01200116
KBQP 230755Z AUTO 00000KT 10SM CLR 11/11 A3005 RMK AO2 P0001 T01140111
KBQP 230735Z AUTO 00000KT 10SM SCT018 12/11 A3005 RMK AO2 T01150112
KBQP 230715Z AUTO 00000KT 10SM SCT018 12/12 A3006 RMK AO2 T01200117
KBQP 230655Z AUTO 00000KT 10SM CLR 12/12 A3006 RMK AO2 T01210119
KBQP 230635Z AUTO 00000KT 10SM CLR 13/13 A3006 RMK AO2 T01300127
KBQP 230615Z AUTO 33005KT 10SM CLR 13/13 A3007 RMK AO2 T01340130
KBQP 230555Z AUTO 33003KT 10SM CLR 14/13 A3007 RMK AO2 60001 T01360133 10153 20131 402310131
KBQP 230535Z AUTO 32004KT 10SM CLR 14/14 A3007 RMK AO2 T01400137
KBQP 230515Z AUTO 33003KT 10SM CLR 14/14 A3007 RMK AO2 T01430140
KBQP 230455Z AUTO 34005KT 10SM CLR 15/14 A3007 RMK AO2 T01480141
KBQP 230435Z AUTO 32005KT 10SM SCT039 15/15 A3007 RMK AO2 T01500146
KBQP 230415Z AUTO 33005KT 10SM SCT022 SCT030 OVC039 15/15 A3007 RMK AO2 T01510148
KBQP 230355Z AUTO 33006KT 10SM BKN021 OVC026 15/15 A3007 RMK AO2 T01520150
KBQP 230335Z AUTO 30006KT 10SM SCT023 SCT029 15/15 A3007 RMK AO2 T01500147
KBQP 230315Z AUTO 30004KT 10SM SCT023 SCT030 15/14 A3007 RMK AO2 T01460143
KBQP 230255Z AUTO 00000KT 10SM SCT023 BKN030 14/14 A3007 RMK AO2 P0001 60001 T01430140
KBQP 230235Z AUTO 30003KT 7SM CLR 14/13 A3007 RMK AO2 P0001 T01350131
KBQP 230215Z AUTO 00000KT 3SM BR CLR 14/13 A3006 RMK AO2 T01360133
KBQP 230155Z AUTO 00000KT 10SM BKN028 15/14 A3006 RMK AO2 T01450142
KBQP 230135Z AUTO 00000KT 10SM BKN026 14/14 A3006 RMK AO2 T01380135
KBQP 230115Z AUTO 00000KT 7SM CLR 14/13 A3006 RMK AO2 T01350132
KBQP 230055Z AUTO 00000KT 10SM CLR 14/14 A3005 RMK AO2 T01390136
KBQP 230035Z AUTO 00000KT 10SM CLR 14/14 A3005 RMK AO2 T01410139
KBQP 230015Z AUTO 00000KT 10SM CLR 14/14 A3004 RMK AO2 T01420140
KBQP 222355Z AUTO 00000KT 10SM CLR 15/15 A3004 RMK AO2 60004 T01470145 10219 20147
KBQP 222335Z AUTO 00000KT 10SM CLR 16/16 A3003 RMK AO2 T01600156
KBQP 222315Z AUTO 00000KT 10SM CLR 18/15 A3003 RMK AO2 T01790149
KBQP 222255Z AUTO 29003KT 10SM CLR 19/14 A3004 RMK AO2 P0001 T01880142
KBQP 222235Z AUTO 31004KT 10SM CLR 19/14 A3003 RMK AO2 P0001 T01920139
KBQP 222215Z AUTO 28007KT 10SM CLR 20/14 A3003 RMK AO2 T02000139
KBQP 222155Z AUTO 29011G18KT 10SM SCT021 SCT038 20/14 A3002 RMK AO2 T02010136
KBQP 222135Z AUTO 29009G19KT 10SM BKN021 BKN030 BKN036 21/16 A3002 RMK AO2 T02070157
KBQP 222115Z AUTO 29011KT 10SM SCT023 SCT028 SCT042 21/15 A3002 RMK AO2 T02080154
KBQP 222055Z AUTO 27012G16KT 10SM SCT025 SCT035 BKN042 21/15 A3002 RMK AO2 P0001 60003 T02130147
KBQP 222035Z AUTO 27013G17KT 10SM BKN025 BKN035 21/15 A3002 RMK AO2 P0001 T02070154
KBQP 222015Z AUTO 17004KT 10SM CLR 21/16 A2998 RMK AO2 T02100159
KBQP 221955Z AUTO 19003KT 10SM SCT120 21/16 A2998 RMK AO2 P0001 T02100156
KBQP 221935Z AUTO 17003KT 10SM OVC120 21/15 A2999 RMK AO2 P0001 T02050151
KBQP 221915Z AUTO 12003KT 10SM OVC110 20/15 A2999 RMK AO2 P0001 T02000151
KBQP 221855Z AUTO 00000KT 10SM OVC110 21/16 A3002 RMK AO2 P0001 T02070158
KBQP 221835Z AUTO 19005KT 10SM OVC110 21/15 A3005 RMK AO2 P0001 T02070150
KBQP 221815Z AUTO 19004KT 10SM OVC110 20/16 A3005 RMK AO2 P0001 T02010158
KBQP 221755Z AUTO 20004KT 10SM OVC110 20/16 A3006 RMK AO2 P0001 60016 T01950164 10211 20152
KBQP 221735Z AUTO 19003KT 10SM OVC110 19/17 A3008 RMK AO2 P0001 T01900170
KBQP 221715Z AUTO 00000KT 10SM OVC100 18/18 A3007 RMK AO2 T01810176
KBQP 221655Z AUTO 20004KT 10SM SCT010 OVC100 18/18 A3009 RMK AO2 P0002 T01800175
KBQP 221635Z AUTO 24004KT 10SM SCT008 OVC090 18/17 A3010 RMK AO2 P0002 T01750172
KBQP 221615Z AUTO 25005KT 10SM SCT008 OVC090 17/17 A3009 RMK AO2 P0001 T01710168
KBQP 221555Z AUTO 23005KT 10SM SCT006 BKN090 OVC120 17/17 A3009 RMK AO2 P0002 T01710168
KBQP 221535Z AUTO 25005KT 10SM SCT006 SCT095 BKN120 17/16 A3009 RMK AO2 P0001 T01660163
KBQP 221515Z AUTO 25003KT 10SM SCT004 OVC095 16/16 A3010 RMK AO2 T01620159
KBQP 221455Z AUTO 00000KT 10SM SCT006 OVC095 16/16 A3010 RMK AO2 P0003 60011 T01580155
KBQP 221435Z AUTO 00000KT 10SM SCT006 OVC095 16/15 A3012 RMK AO2 P0002 T01560154
KBQP 221415Z AUTO 26005KT 10SM SCT006 BKN075 OVC095 16/15 A3010 RMK AO2 P0001 T01560153
KBQP 221355Z AUTO 29003KT 10SM SCT008 SCT049 OVC075 16/15 A3008 RMK AO2 P0004 T01550151
KBQP 221335Z AUTO 32006KT 10SM -DZ BKN008 SCT021 OVC075 15/15 A3007 RMK AO2 LTG DSNT E P0002 T01530150
KBQP 221315Z AUTO 29008KT 10SM -RA SCT010 BKN065 OVC120 15/15 A3008 RMK AO2 LTG DSNT SE AND S P0001 T01530150
KBQP 221255Z AUTO 31009G18KT 10SM -TSDZ SCT010 BKN065 OVC075 15/15 A3006 RMK AO2 LTG DSNT NE THRU S P0004 T01530150
KBQP 221235Z AUTO 31010G16KT 5SM VCTSRA SCT010 BKN030 OVC075 16/15 A3007 RMK AO2 LTG DSNT ALQS P0002 T01550151
KBQP 221215Z AUTO 32013G30KT 1 3/4SM +VCTSRA BKN007 OVC013 16/16 A3007 RMK AO2 LTG DSNT ALQS P0001 T01590156
KBQP 221155Z AUTO 30010KT 10SM TS SCT012 BKN055 OVC110 21/21 A3005 RMK AO2 LTG DSNT ALQS P0004 60004 70010 T02110208 10231 20211
KBQP 221135Z AUTO 22005KT 10SM TS SCT037 SCT055 BKN095 21/21 A3001 RMK AO2 LTG DSNT ALQS P0002 T02120210
KBQP 221115Z AUTO 19004KT 4SM +TSRA SCT033 BKN060 OVC080 22/21 A2999 RMK AO2 LTG DSNT ALQS T02170214
KBQP 221055Z AUTO 23003KT 10SM -TSRA SCT017 BKN050 OVC070 22/22 A3001 RMK AO2 LTG DSNT ALQS T02180215
KBQP 221035Z AUTO 23004KT 10SM VCTS SCT017 BKN040 OVC070 22/21 A3001 RMK AO2 LTG DSNT N SE AND W T02170214
KBQP 221015Z AUTO 00000KT 10SM OVC070 22/22 A3001 RMK AO2 LTG DSNT N AND NW T02190215
KBQP 220955Z AUTO 24003KT 10SM BKN070 22/22 A3000 RMK AO2 LTG DSNT NW T02180215
KBQP 220935Z AUTO 22003KT 10SM CLR 22/22 A3000 RMK AO2 LTG DSNT W T02200217
KBQP 220915Z AUTO 20004KT 10SM SCT060 22/22 A2998 RMK AO2 T02200217
KBQP 220855Z AUTO 20004KT 10SM BKN060 22/22 A2998 RMK AO2 T02210218
KBQP 220835Z AUTO 20005KT 10SM CLR 22/22 A2997 RMK AO2 T02200216
KBQP 220815Z AUTO 17004KT 10SM CLR 22/22 A2996 RMK AO2 LTG DSNT SE T02200217
KBQP 220755Z AUTO 19003KT 10SM SCT024 BKN029 22/22 A2996 RMK AO2 LTG DSNT S AND NW T02220218
KBQP 220735Z AUTO 18004KT 10SM SCT021 OVC026 23/22 A2997 RMK AO2 T02250221
KBQP 220715Z AUTO 16004KT 10SM BKN021 OVC026 23/22 A2997 RMK AO2 LTG DSNT SE T02260223
KBQP 220655Z AUTO 15003KT 10SM BKN024 OVC029 23/22 A2998 RMK AO2 LTG DSNT S T02260222
KBQP 220635Z AUTO 00000KT 10SM SCT018 BKN026 OVC035 23/23 A2998 RMK AO2 LTG DSNT SE AND S T02280225
KBQP 220615Z AUTO 15003KT 10SM BKN020 OVC027 23/23 A2999 RMK AO2 T02300227
KBQP 220555Z AUTO 13003KT 10SM BKN020 BKN026 OVC030 23/23 A3001 RMK AO2 LTG DSNT N AND S 60006 T02310228 10235 20226 403090181
KBQP 220535Z AUTO 00000KT 10SM BKN023 OVC028 23/23 A3002 RMK AO2 LTG DSNT S T02310228
KBQP 220515Z AUTO 00000KT 10SM BKN021 OVC028 23/23 A3002 RMK AO2 LTG DSNT S T02320229
KBQP 220455Z AUTO 14003KT 10SM SCT020 BKN026 23/23 A3001 RMK AO2 LTG DSNT S T02310228
KBQP 220435Z AUTO 12005KT 10SM BKN020 OVC026 23/23 A3002 RMK AO2 T02320230
KBQP 220415Z AUTO 13004KT 10SM OVC018 23/23 A3003 RMK AO2 LTG DSNT SE AND S T02330230
KBQP 220355Z AUTO 12004KT 10SM OVC018 23/23 A3004 RMK AO2 LTG DSNT S T02330230
KBQP 220335Z AUTO 11003KT 10SM OVC018 23/23 A3004 RMK AO2 LTG DSNT S T02310228
KBQP 220315Z AUTO 11005KT 10SM BKN018 BKN026 OVC032 23/23 A3004 RMK AO2 T02310227
KBQP 220255Z AUTO 09005KT 10SM SCT020 SCT026 BKN032 23/23 A3004 RMK AO2 LTG DSNT S P0001 60006 T02300226
KBQP 220235Z AUTO 00000KT 10SM SCT027 SCT060 23/22 A3003 RMK AO2 LTG DSNT NE AND S P0001 T02260222
KBQP 220215Z AUTO 00000KT 10SM OVC029 23/23 A3002 RMK AO2 T02280225
KBQP 220155Z AUTO 00000KT 10SM BKN031 BKN080 23/23 A3002 RMK AO2 LTG DSNT S AND SW T02280225
KBQP 220135Z AUTO 00000KT 10SM -VCTSRA CLR 23/23 A3002 RMK AO2 LTG DSNT NE S AND SW T02280225
KBQP 220115Z AUTO 00000KT 10SM -RA SCT042 23/22 A3001 RMK AO2 LTG DSNT NE THRU SW T02270223
KBQP 220055Z AUTO 08003KT 10SM -RA SCT044 BKN060 BKN075 23/23 A3000 RMK AO2 LTG DSNT NE THRU SW P0005 T02270225
KBQP 220035Z AUTO 08003KT 10SM -TSRA SCT044 SCT060 BKN090 23/23 A3001 RMK AO2 LTG DSNT ALQS P0004 T02280225
KBQP 220015Z AUTO 11003KT 3SM +TSRA SCT050 BKN080 OVC100 23/23 A3002 RMK AO2 LTG DSNT ALQS P0003 T02330230
KBQP 212355Z AUTO 00000KT 10SM SCT042 SCT055 BKN100 24/23 A3002 RMK AO2 LTG DSNT S THRU W T02360232 10309 20236
KBQP 212335Z AUTO 25003KT 10SM -TSRA BKN044 BKN055 BKN070 25/22 A3002 RMK AO2 LTG DSNT ALQS T02490222
KBQP 212315Z AUTO 00000KT 10SM -TSRA SCT042 BKN048 BKN055 26/21 A3000 RMK AO2 LTG DSNT SW THRU NW T02590208
KBQP 212255Z AUTO 00000KT 10SM TS SCT055 SCT075 SCT100 26/21 A2998 RMK AO2 LTG DSNT ALQS T02600206
KBQP 212235Z AUTO 00000KT 10SM SCT075 SCT095 BKN110 27/20 A2998 RMK AO2 LTG DSNT S THRU W T02700201
KBQP 212215Z AUTO 12003KT 10SM VCTS OVC110 27/20 A2998 RMK AO2 LTG DSNT S AND SW T02720204
KBQP 212155Z AUTO 12003KT 10SM VCTS BKN110 27/21 A2999 RMK AO2 LTG DSNT SW T02730207
KBQP 212135Z AUTO 13003KT 10SM SCT038 SCT055 BKN070 28/21 A2998 RMK AO2 T02800205
KBQP 212115Z AUTO 14007KT 120V190 10SM SCT038 BKN055 OVC065 29/21 A2999 RMK AO2 LTG DSNT S T02880205
KBQP 212055Z AUTO 13004KT 10SM SCT038 SCT044 BKN055 29/20 A2999 RMK AO2 LTG DSNT S T02900203
KBQP 212035Z AUTO 16006KT 10SM SCT065 BKN075 BKN095 29/20 A2999 RMK AO2 LTG DSNT S T02940198
KBQP 212015Z AUTO 16003KT 10SM SCT075 BKN095 29/20 A3000 RMK AO2 T02860200
KBQP 211955Z AUTO 17007KT 120V190 10SM SCT035 SCT050 BKN095 28/20 A3000 RMK AO2 T02840199
KBQP 211935Z AUTO 13007KT 10SM BKN037 BKN049 OVC060 29/20 A3000 RMK AO2 T02850201
KBQP 211915Z AUTO 15007KT 110V170 10SM BKN037 BKN044 OVC060 30/20 A3001 RMK AO2 T03020200
KBQP 211855Z AUTO 16006KT 10SM BKN037 BKN046 BKN095 29/20 A3001 RMK AO2 T02920201
KBQP 211835Z AUTO 17007KT 130V230 10SM OVC037 29/20 A3002 RMK AO2 T02900200
KBQP 211815Z AUTO 16006KT 10SM BKN037 BKN055 OVC100 29/20 A3002 RMK AO2 T02910199
KBQP 211755Z AUTO 18008G15KT 160V220 10SM BKN035 BKN055 BKN100 29/20 A3003 RMK AO2 T02920199 10292 20193
KBQP 211735Z AUTO 14003KT 10SM BKN033 BKN055 27/20 A3004 RMK AO2 T02730200
KBQP 211715Z AUTO 16004KT 10SM SCT029 BKN100 28/20 A3005 RMK AO2 T02790200
KBQP 211655Z AUTO 15004KT 10SM SCT029 OVC090 27/20 A3006 RMK AO2 T02730203
KBQP 211635Z AUTO 15005KT 10SM OVC090 26/20 A3007 RMK AO2 T02580201
KBQP 211615Z AUTO 14006G14KT 10SM OVC090 26/20 A3008 RMK AO2 T02560199
KBQP 211555Z AUTO 14008KT 110V170 10SM OVC090 25/20 A3008 RMK AO2 LTG DSNT S T02530197
KBQP 211535Z AUTO 14008KT 100V180 10SM SCT080 26/20 A3008 RMK AO2 T02590197
KBQP 211515Z AUTO 15007KT 120V180 10SM CLR 25/20 A3008 RMK AO2 T02530199
KBQP 211455Z AUTO 14005KT 10SM SCT090 24/20 A3008 RMK AO2 T02440204
KBQP 211435Z AUTO 12004KT 10SM SCT036 SCT050 BKN090 23/21 A3009 RMK AO2 T02250206
KBQP 211415Z AUTO 13003KT 10SM -RA SCT036 SCT050 BKN100 22/21 A3009 RMK AO2 T02150206
KBQP 211355Z AUTO 11005KT 10SM BKN080 21/21 A3008 RMK AO2 T02090205
KBQP 211335Z AUTO 12004KT 10SM SCT080 21/20 A3008 RMK AO2 T02050201
KBQP 211315Z AUTO 11004KT 10SM CLR 20/20 A3008 RMK AO2 T01980195
KBQP 211255Z AUTO 00000KT 10SM CLR 20/19 A3007 RMK AO2 T01950191
KBQP 211235Z AUTO 12003KT 10SM CLR 19/19 A3006 RMK AO2 T01940190
KBQP 211215Z AUTO 11003KT 10SM CLR 19/19 A3006 RMK AO2 T01940190
KBQP 211155Z AUTO 00000KT 10SM CLR 19/19 A3005 RMK AO2 T01930190 10195 20181
KBQP 211135Z AUTO 10003KT 10SM SCT023 19/19 A3005 RMK AO2 T01900187
KBQP 211115Z AUTO 00000KT 10SM CLR 19/19 A3004 RMK AO2 T01870185
KBQP 211055Z AUTO 10003KT 10SM CLR 19/18 A3004 RMK AO2 T01860183
KBQP 211035Z AUTO 10003KT 10SM CLR 19/19 A3004 RMK AO2 T01880185
KBQP 211015Z AUTO 10004KT 10SM CLR 19/19 A3004 RMK AO2 T01900187
KBQP 210955Z AUTO 09003KT 10SM CLR 19/19 A3004 RMK AO2 T01870185
KBQP 210935Z AUTO 10003KT 10SM CLR 19/18 A3004 RMK AO2 T01860183
KBQP 210915Z AUTO 00000KT 10SM CLR 19/19 A3004 RMK AO2 T01890185
KBQP 210855Z AUTO 00000KT 10SM CLR 19/19 A3005 RMK AO2 T01910188
KBQP 210835Z AUTO 10003KT 10SM CLR 19/19 A3005 RMK AO2 T01880185
KBQP 210815Z AUTO 00000KT 10SM CLR 18/18 A3005 RMK AO2 T01840180
KBQP 210755Z AUTO 00000KT 10SM CLR 18/18 A3005 RMK AO2 T01810178
KBQP 210735Z AUTO 00000KT 10SM CLR 19/18 A3005 RMK AO2 T01860183
KBQP 210715Z AUTO 00000KT 10SM CLR 19/19 A3005 RMK AO2 T01870185
KBQP 210655Z AUTO 00000KT 10SM CLR 19/19 A3005 RMK AO2 T01920188
KBQP 210635Z AUTO 00000KT 10SM CLR 20/19 A3005 RMK AO2 T01950186
KBQP 210615Z AUTO 00000KT 10SM CLR 19/19 A3005 RMK AO2 T01910186
KBQP 210555Z AUTO 00000KT 10SM CLR 19/18 A3005 RMK AO2 T01860183 10195 20174 402490118
KBQP 210535Z AUTO 00000KT 10SM CLR 19/18 A3006 RMK AO2 T01930180
KBQP 210515Z AUTO 00000KT 10SM CLR 19/18 A3006 RMK AO2 T01860180
KBQP 210455Z AUTO 00000KT 10SM CLR 19/18 A3006 RMK AO2 T01900176
KBQP 210435Z AUTO 00000KT 10SM CLR 19/17 A3007 RMK AO2 T01940173
KBQP 210415Z AUTO 00000KT 10SM CLR 20/17 A3007 RMK AO2 T01950170
KBQP 210355Z AUTO 00000KT 10SM SCT039 20/17 A3006 RMK AO2 T01950169
KBQP 210335Z AUTO 09003KT 10SM BKN039 19/17 A3006 RMK AO2 T01930170
KBQP 210315Z AUTO 00000KT 10SM SCT039 SCT047 19/17 A3007 RMK AO2 T01850172
KBQP 210255Z AUTO 00000KT 10SM SCT047 18/17 A3007 RMK AO2 T01770173
KBQP 210235Z AUTO 00000KT 10SM SCT047 18/17 A3007 RMK AO2 T01760173
KBQP 210215Z AUTO 00000KT 10SM CLR 18/17 A3007 RMK AO2 T01770174
KBQP 210155Z AUTO 00000KT 10SM CLR 18/18 A3006 RMK AO2 T01810177
KBQP 210135Z AUTO 00000KT 10SM CLR 18/18 A3006 RMK AO2 T01800176
KBQP 210115Z AUTO 00000KT 10SM CLR 18/18 A3007 RMK AO2 T01830180
KBQP 210055Z AUTO 00000KT 10SM CLR 18/18 A3007 RMK AO2 T01790176
KBQP 210035Z AUTO 00000KT 10SM CLR 18/17 A3007 RMK AO2 T01760173
KBQP 210015Z AUTO 00000KT 10SM CLR 18/17 A3007 RMK AO2 T01760172
KBQP 202355Z AUTO 00000KT 10SM CLR 18/18 A3006 RMK AO2 T01830180 10249 20183
KBQP 202335Z AUTO 00000KT 10SM CLR 19/19 A3007 RMK AO2 T01900187
KBQP 202315Z AUTO 00000KT 10SM CLR 20/19 A3007 RMK AO2 T01980186
KBQP 202255Z AUTO 00000KT 10SM CLR 21/19 A3007 RMK AO2 LTG DSNT SW T02110186
KBQP 202235Z AUTO 00000KT 10SM CLR 22/18 A3008 RMK AO2 LTG DSNT SW T02200180
KBQP 202215Z AUTO 00000KT 10SM CLR 23/17 A3008 RMK AO2 LTG DSNT SW T02300171
KBQP 202155Z AUTO 00000KT 10SM CLR 24/16 A3008 RMK AO2 T02380156
KBQP 202135Z AUTO 00000KT 10SM CLR 24/15 A3009 RMK AO2 T02380150
KBQP 202115Z AUTO 00000KT 10SM CLR 24/17 A3008 RMK AO2 LTG DSNT S T02380166
KBQP 202055Z AUTO 00000KT 10SM CLR 24/15 A3009 RMK AO2 T02420150
KBQP 202035Z AUTO 11003KT 10SM CLR 25/15 A3008 RMK AO2 LTG DSNT SW T02450145
KBQP 202015Z AUTO 00000KT 10SM CLR 25/15 A3007 RMK AO2 LTG DSNT SW T02460148
KBQP 201955Z AUTO 13003KT 10SM CLR 25/15 A3009 RMK AO2 T02480149
KBQP 201935Z AUTO 12003KT 10SM CLR 25/15 A3010 RMK AO2 T02470149
KBQP 201915Z AUTO 16004KT 10SM CLR 25/15 A3011 RMK AO2 LTG DSNT S T02470148
KBQP 201855Z AUTO 12004KT 10SM CLR 25/15 A3012 RMK AO2 T02450148
KBQP 201835Z AUTO 08006KT 10SM CLR 24/15 A3012 RMK AO2 T02440148
KBQP 201815Z AUTO 10005KT 10SM CLR 24/15 A3013 RMK AO2 LTG DSNT SW T02400145
KBQP 201755Z AUTO 09005KT 10SM CLR 24/15 A3015 RMK AO2 T02430146 10245 20137
KBQP 201735Z AUTO 13005KT 10SM CLR 24/15 A3017 RMK AO2 T02410145
KBQP 201715Z AUTO 11003KT 10SM CLR 24/15 A3018 RMK AO2 T02400147
KBQP 201655Z AUTO 13004KT 10SM CLR 23/15 A3019 RMK AO2 T02340151
KBQP 201635Z AUTO 12003KT 10SM CLR 23/15 A3020 RMK AO2 LTG DSNT SW T02300150
KBQP 201615Z AUTO 00000KT 10SM CLR 23/15 A3020 RMK AO2 LTG DSNT SW T02250153
KBQP 201555Z AUTO 10003KT 10SM CLR 22/16 A3020 RMK AO2 LTG DSNT SW T02160155
KBQP 201535Z AUTO 10005KT 10SM CLR 21/16 A3020 RMK AO2 T02060156
KBQP 201515Z AUTO 10004KT 10SM CLR 19/16 A3021 RMK AO2 T01920157